Time;durP1;ratioP1;P1;durP2;ratioP2;P2;SDS_P1;SDS_P2;PMS_P1;PMS_P2;Temp;Humidity;BMP_temperature;BMP_pressure;BME280_temperature;BME280_humidity;BME280_pressure;Samples;Min_cycle;Max_cycle;Signal;HPM_P1;HPM_P2
2024/02/07 00:00:33;;;;;;;5.00;2.90;;;;;;;8.71;100.00;97857.32;109340;1252;63700;-76
2024/02/07 00:03:19;;;;;;;6.30;3.20;;;;;;;8.73;100.00;97846.60;109401;1256;58974;-76
2024/02/07 00:05:47;;;;;;;5.60;2.80;;;;;;;8.73;100.00;97845.66;109163;1259;59024;-77
2024/02/07 00:08:14;;;;;;;6.40;3.20;;;;;;;8.71;100.00;97842.98;109405;1252;76121;-75
2024/02/07 00:10:41;;;;;;;4.40;2.70;;;;;;;8.69;100.00;97838.54;109429;1252;61453;-75
2024/02/07 00:13:08;;;;;;;4.60;2.40;;;;;;;8.69;100.00;97832.34;109146;1252;64932;-76
2024/02/07 00:15:34;;;;;;;6.80;3.40;;;;;;;8.69;100.00;97830.90;109416;1252;59194;-75
2024/02/07 00:18:01;;;;;;;5.00;2.10;;;;;;;8.70;100.00;97827.30;109409;1253;59279;-75
2024/02/07 00:20:28;;;;;;;4.30;2.50;;;;;;;8.72;100.00;97825.23;109410;1252;67192;-76
2024/02/07 00:22:54;;;;;;;4.90;2.80;;;;;;;8.72;100.00;97825.91;109406;1256;61177;-76
2024/02/07 00:25:21;;;;;;;3.70;2.20;;;;;;;8.73;100.00;97831.15;109437;1252;65118;-76
2024/02/07 00:27:47;;;;;;;3.90;2.50;;;;;;;8.76;100.00;97825.64;109387;1253;59252;-75
2024/02/07 00:30:14;;;;;;;2.10;1.80;;;;;;;8.76;100.00;97827.39;109401;1253;59061;-76
2024/02/07 00:32:41;;;;;;;2.90;2.00;;;;;;;8.75;100.00;97826.52;109439;1252;67015;-75
2024/02/07 00:35:07;;;;;;;4.10;2.20;;;;;;;8.76;100.00;97826.84;109396;1253;61050;-76
2024/02/07 00:37:34;;;;;;;3.00;2.00;;;;;;;8.77;100.00;97824.45;109438;1253;65588;-76
2024/02/07 00:40:01;;;;;;;5.20;2.60;;;;;;;8.78;100.00;97825.27;109196;1252;59091;-75
2024/02/07 00:42:28;;;;;;;3.90;2.20;;;;;;;8.77;100.00;97828.18;109461;1253;59093;-76
2024/02/07 00:44:54;;;;;;;2.60;2.30;;;;;;;8.75;100.00;97817.91;109456;1253;66154;-75
2024/02/07 00:47:21;;;;;;;5.50;2.60;;;;;;;8.72;100.00;97812.50;109431;1252;60996;-76
2024/02/07 00:49:47;;;;;;;5.10;2.40;;;;;;;8.67;100.00;97805.98;109396;1252;64013;-77
2024/02/07 00:52:14;;;;;;;6.10;2.10;;;;;;;8.60;100.00;97801.02;109431;1253;59075;-76
2024/02/07 00:54:40;;;;;;;4.70;2.60;;;;;;;8.54;100.00;97801.17;109424;1252;59033;-76
2024/02/07 00:57:07;;;;;;;6.90;2.60;;;;;;;8.50;100.00;97805.73;109408;1252;67006;-75
2024/02/07 00:59:33;;;;;;;5.10;2.80;;;;;;;8.45;100.00;97808.77;109435;1253;61048;-75
2024/02/07 01:02:00;;;;;;;4.30;2.30;;;;;;;8.43;100.00;97812.99;109425;1253;64019;-75
2024/02/07 01:04:27;;;;;;;7.00;2.40;;;;;;;8.42;100.00;97814.09;109426;1253;59366;-76
2024/02/07 01:06:54;;;;;;;5.40;2.60;;;;;;;8.42;100.00;97805.05;109441;1253;59054;-76
2024/02/07 01:09:21;;;;;;;4.70;1.80;;;;;;;8.44;100.00;97797.48;109443;1255;67219;-76
2024/02/07 01:11:47;;;;;;;4.70;1.90;;;;;;;8.45;100.00;97796.35;109438;1252;60187;-75
2024/02/07 01:14:14;;;;;;;6.30;2.50;;;;;;;8.45;100.00;97799.33;109417;1252;64126;-75
2024/02/07 01:16:40;;;;;;;6.70;2.00;;;;;;;8.47;100.00;97802.70;109437;1253;59060;-75
2024/02/07 01:19:07;;;;;;;7.00;2.30;;;;;;;8.49;100.00;97796.40;109476;1252;59001;-76
2024/02/07 01:21:33;;;;;;;6.00;2.80;;;;;;;8.51;100.00;97791.95;109229;1253;67085;-76
2024/02/07 01:24:00;;;;;;;6.00;2.10;;;;;;;8.55;100.00;97786.17;109493;1256;61086;-75
2024/02/07 01:26:27;;;;;;;5.10;1.80;;;;;;;8.59;100.00;97787.52;109216;1254;64237;-76
2024/02/07 01:28:54;;;;;;;3.30;1.80;;;;;;;8.60;100.00;97782.95;109500;1254;58900;-76
2024/02/07 01:31:21;;;;;;;5.20;1.90;;;;;;;8.59;100.00;97774.38;109566;1254;59036;-77
2024/02/07 01:33:47;;;;;;;3.50;1.60;;;;;;;8.58;100.00;97777.45;109512;1253;66011;-76
2024/02/07 01:36:14;;;;;;;6.50;2.40;;;;;;;8.59;100.00;97773.11;109411;1253;61430;-75
2024/02/07 01:38:41;;;;;;;4.50;1.90;;;;;;;8.62;100.00;97777.73;109382;1254;65351;-75
2024/02/07 01:41:08;;;;;;;4.60;1.80;;;;;;;8.62;100.00;97773.96;109440;1256;59292;-77
2024/02/07 01:43:34;;;;;;;4.10;2.10;;;;;;;8.62;100.00;97776.26;109401;1254;59051;-75
2024/02/07 01:46:01;;;;;;;2.60;1.70;;;;;;;8.63;100.00;97771.09;109394;1256;66191;-75
2024/02/07 01:48:29;;;;;;;3.70;2.00;;;;;;;8.61;100.00;97768.56;109398;1254;61321;-76
2024/02/07 01:50:57;;;;;;;4.90;1.60;;;;;;;8.60;100.00;97762.57;109176;1254;64207;-75
2024/02/07 01:53:26;;;;;;;5.90;1.70;;;;;;;8.61;100.00;97762.19;109375;1253;58987;-76
2024/02/07 01:55:53;;;;;;;6.80;1.90;;;;;;;8.62;100.00;97749.55;109392;1254;59260;-75
2024/02/07 01:58:20;;;;;;;3.40;1.70;;;;;;;8.63;100.00;97753.20;109432;1252;67235;-75
2024/02/07 02:00:48;;;;;;;2.00;1.50;;;;;;;8.65;100.00;97753.20;109445;1253;61151;-76
2024/02/07 02:03:14;;;;;;;2.60;1.10;;;;;;;8.65;100.00;97753.14;109401;1254;64014;-77
2024/02/07 02:05:41;;;;;;;3.30;1.40;;;;;;;8.64;100.00;97744.73;109364;1257;58971;-77
2024/02/07 02:08:08;;;;;;;3.90;1.50;;;;;;;8.66;100.00;97750.83;109199;1253;59410;-75
2024/02/07 02:10:35;;;;;;;3.30;1.80;;;;;;;8.66;100.00;97745.69;109217;1254;67105;-76
2024/02/07 02:13:03;;;;;;;4.80;2.30;;;;;;;8.64;100.00;97741.93;109226;1253;60321;-75
2024/02/07 02:15:31;;;;;;;3.10;2.40;;;;;;;8.62;100.00;97738.15;109419;1255;64744;-75
2024/02/07 02:17:57;;;;;;;4.80;1.50;;;;;;;8.59;100.00;97730.97;109241;1255;59299;-75
2024/02/07 02:20:24;;;;;;;3.70;1.60;;;;;;;8.55;100.00;97728.09;109368;1253;59034;-75
2024/02/07 02:23:09;;;;;;;3.70;2.20;;;;;;;8.52;100.00;97722.47;109415;1254;66129;-76
2024/02/07 02:25:57;;;;;;;3.70;1.50;;;;;;;8.49;100.00;97706.79;109408;1254;61077;-76
2024/02/07 02:28:52;;;;;;;3.80;1.60;;;;;;;8.45;100.00;97707.48;109364;1253;65148;-76
2024/02/07 02:31:20;;;;;;;2.60;1.30;;;;;;;8.41;100.00;97699.68;109269;1254;59114;-77
2024/02/07 02:33:52;;;;;;;3.10;1.50;;;;;;;8.41;100.00;97696.86;109410;1253;59042;-75
2024/02/07 02:36:19;;;;;;;3.70;1.40;;;;;;;8.39;100.00;97691.32;109400;1254;66100;-76
2024/02/07 02:38:45;;;;;;;2.60;1.40;;;;;;;8.39;100.00;97688.84;109419;1254;61066;-76
2024/02/07 02:41:14;;;;;;;3.40;1.70;;;;;;;8.38;100.00;97681.48;109372;1253;63996;-76
2024/02/07 02:43:40;;;;;;;2.40;1.50;;;;;;;8.35;100.00;97676.66;109330;1254;59035;-75
2024/02/07 02:46:09;;;;;;;3.30;1.90;;;;;;;8.32;100.00;97685.27;109253;1254;59017;-76
2024/02/07 02:48:36;;;;;;;4.10;1.40;;;;;;;8.30;100.00;97685.98;109378;1254;66987;-76
2024/02/07 02:51:03;;;;;;;3.70;1.10;;;;;;;8.30;100.00;97683.70;109422;1254;61400;-75
2024/02/07 02:53:32;;;;;;;2.70;1.60;;;;;;;8.31;100.00;97678.14;109144;1254;62876;-75
2024/02/07 02:55:59;;;;;;;3.70;1.80;;;;;;;8.31;100.00;97674.61;109394;1253;59060;-75
2024/02/07 02:58:29;;;;;;;3.50;1.50;;;;;;;8.31;100.00;97670.00;109427;1252;58964;-75
2024/02/07 03:00:56;;;;;;;;;;;;;;;8.32;100.00;97664.05;109407;1252;65866;-76
2024/02/07 03:03:23;;;;;;;3.80;1.40;;;;;;;8.32;100.00;97663.84;109381;1253;61381;-75
2024/02/07 03:05:58;;;;;;;3.30;1.50;;;;;;;8.32;100.00;97665.64;109389;1253;64264;-76
2024/02/07 03:08:54;;;;;;;1.60;1.30;;;;;;;8.31;100.00;97662.17;109413;1254;58936;-76
2024/02/07 03:11:18;;;;;;;3.20;1.20;;;;;;;8.30;100.00;97665.80;109394;1254;59044;-76
2024/02/07 03:13:44;;;;;;;2.20;1.50;;;;;;;8.30;100.00;97666.34;109390;1253;67056;-76
2024/02/07 03:16:12;;;;;;;4.20;1.50;;;;;;;8.31;100.00;97660.78;109401;1254;60169;-75
2024/02/07 03:18:39;;;;;;;4.90;1.50;;;;;;;8.31;100.00;97653.52;109095;1253;64220;-76
2024/02/07 03:21:06;;;;;;;5.00;1.80;;;;;;;8.30;100.00;97653.23;109369;1253;59287;-75
2024/02/07 03:23:33;;;;;;;5.00;1.60;;;;;;;8.30;100.00;97644.02;109382;1253;58974;-74
2024/02/07 03:26:06;;;;;;;4.40;2.20;;;;;;;8.31;100.00;97646.76;109389;1254;67003;-75
2024/02/07 03:28:33;;;;;;;1.60;1.40;;;;;;;8.32;100.00;97641.38;109416;1253;61126;-76
2024/02/07 03:30:59;;;;;;;4.10;1.30;;;;;;;8.32;100.00;97633.58;109405;1254;65103;-76
2024/02/07 03:33:26;;;;;;;3.70;1.40;;;;;;;8.33;100.00;97637.56;109413;1253;59081;-75
2024/02/07 03:35:54;;;;;;;3.70;1.60;;;;;;;8.33;100.00;97646.45;109396;1254;59347;-77
2024/02/07 03:38:21;;;;;;;5.70;2.30;;;;;;;8.33;100.00;97645.39;109282;1254;66516;-76
2024/02/07 03:40:49;;;;;;;5.10;1.50;;;;;;;8.32;100.00;97645.79;109087;1256;59329;-75
2024/02/07 03:43:17;;;;;;;3.00;1.20;;;;;;;8.35;100.00;97640.29;109038;1257;64274;-76
2024/02/07 03:45:44;;;;;;;2.30;1.20;;;;;;;8.37;100.00;97628.44;109058;1256;59063;-76
2024/02/07 03:48:13;;;;;;;5.70;1.70;;;;;;;8.37;100.00;97630.02;109072;1256;58988;-76
2024/02/07 03:50:57;;;;;;;4.60;1.60;;;;;;;8.37;100.00;97635.70;108964;1260;66251;-77
2024/02/07 03:53:23;;;;;;;3.30;1.40;;;;;;;8.36;100.00;97628.66;108991;1260;61268;-75
2024/02/07 03:55:50;;;;;;;5.80;1.60;;;;;;;8.35;100.00;97629.09;108937;1261;64057;-75
2024/02/07 03:58:19;;;;;;;2.40;1.20;;;;;;;8.33;100.00;97627.72;108971;1261;59314;-75
2024/02/07 04:00:47;;;;;;;4.10;1.40;;;;;;;8.30;100.00;97621.94;108999;1259;59477;-76
2024/02/07 04:03:14;;;;;;;3.20;1.60;;;;;;;8.27;100.00;97625.66;108967;1260;67070;-76
2024/02/07 04:05:41;;;;;;;4.20;1.50;;;;;;;8.27;100.00;97621.06;108921;1259;61034;-75
2024/02/07 04:08:07;;;;;;;2.30;1.70;;;;;;;8.25;100.00;97610.23;108967;1260;65000;-76
2024/02/07 04:10:41;;;;;;;4.20;1.40;;;;;;;8.24;100.00;97611.45;108939;1259;59243;-76
2024/02/07 05:16:12;;;;;;;2.30;1.40;;;;;;;8.03;100.00;97551.86;109372;1252;64355;-74
2024/02/07 05:18:40;;;;;;;4.40;1.90;;;;;;;8.03;100.00;97552.96;109355;1253;58922;-75
2024/02/07 05:21:09;;;;;;;3.20;1.60;;;;;;;8.00;100.00;97552.84;109419;1252;59074;-75
2024/02/07 05:23:35;;;;;;;2.40;1.50;;;;;;;7.99;100.00;97551.00;109372;1253;66007;-75
2024/02/07 05:26:04;;;;;;;2.40;1.10;;;;;;;7.98;100.00;97541.52;109092;1252;60065;-75
2024/02/07 05:28:30;;;;;;;4.00;1.90;;;;;;;7.97;100.00;97538.80;109406;1253;65060;-76
2024/02/07 05:30:57;;;;;;;2.60;1.40;;;;;;;7.96;100.00;97543.08;109365;1253;58997;-76
2024/02/07 05:33:24;;;;;;;2.10;1.30;;;;;;;7.95;100.00;97542.27;109127;1253;59864;-75
2024/02/07 05:35:51;;;;;;;4.90;1.70;;;;;;;7.95;100.00;97536.79;109450;1253;66008;-76
2024/02/07 05:38:17;;;;;;;2.40;1.70;;;;;;;7.94;100.00;97531.95;109490;1253;60135;-76
2024/02/07 05:40:44;;;;;;;3.40;1.40;;;;;;;7.95;100.00;97525.86;109126;1253;64803;-75
2024/02/07 05:43:10;;;;;;;3.20;1.60;;;;;;;7.96;100.00;97533.02;109385;1252;58951;-75
2024/02/07 05:45:37;;;;;;;3.20;1.40;;;;;;;7.99;100.00;97528.51;109285;1252;59127;-76
2024/02/07 05:48:04;;;;;;;3.40;1.60;;;;;;;8.01;100.00;97531.05;109387;1252;67321;-76
2024/02/07 05:50:30;;;;;;;3.50;1.10;;;;;;;8.02;100.00;97531.14;109418;1253;61003;-76
2024/02/07 05:52:57;;;;;;;3.00;1.70;;;;;;;8.05;100.00;97520.57;109395;1252;64106;-76
2024/02/07 05:55:24;;;;;;;3.30;1.60;;;;;;;8.08;100.00;97518.59;109347;1252;59074;-74
2024/02/07 05:57:50;;;;;;;3.60;2.30;;;;;;;8.09;100.00;97517.60;109406;1253;59042;-75
2024/02/07 06:00:17;;;;;;;5.60;1.90;;;;;;;8.12;100.00;97518.80;109389;1252;67159;-76
2024/02/07 06:02:44;;;;;;;1.60;1.30;;;;;;;8.14;100.00;97509.09;109111;1253;61084;-75
2024/02/07 06:05:11;;;;;;;3.80;1.50;;;;;;;8.16;100.00;97510.71;109354;1253;63776;-76
2024/02/07 06:07:38;;;;;;;4.10;2.00;;;;;;;8.17;100.00;97519.33;109356;1252;58967;-76
2024/02/07 06:10:05;;;;;;;2.80;1.80;;;;;;;8.18;100.00;97512.70;109380;1252;59013;-75
2024/02/07 06:12:32;;;;;;;5.20;2.10;;;;;;;8.19;100.00;97518.42;109088;1252;65245;-74
2024/02/07 06:14:58;;;;;;;5.00;1.90;;;;;;;8.19;100.00;97506.17;109432;1252;60254;-77
2024/02/07 06:17:26;;;;;;;4.40;2.00;;;;;;;8.20;100.00;97511.61;109384;1252;72873;-75
2024/02/07 06:19:53;;;;;;;4.60;1.90;;;;;;;8.21;100.00;97509.44;109343;1252;59095;-75
2024/02/07 06:22:20;;;;;;;4.70;2.50;;;;;;;8.21;100.00;97511.85;109390;1252;58989;-76
2024/02/07 06:24:47;;;;;;;2.40;1.90;;;;;;;8.21;100.00;97508.66;109332;1253;65878;-76
2024/02/07 06:27:13;;;;;;;3.80;1.90;;;;;;;8.21;100.00;97511.92;109383;1252;60127;-75
2024/02/07 06:29:40;;;;;;;7.00;2.00;;;;;;;8.22;100.00;97513.23;109408;1253;63752;-76
2024/02/07 06:32:06;;;;;;;2.90;1.50;;;;;;;8.23;100.00;97511.16;109365;1252;59038;-75
2024/02/07 06:34:34;;;;;;;3.70;1.80;;;;;;;8.24;100.00;97514.14;109382;1252;59100;-77
2024/02/07 06:37:00;;;;;;;2.80;2.10;;;;;;;8.24;100.00;97524.58;109300;1252;65794;-75
2024/02/07 06:39:27;;;;;;;3.00;1.90;;;;;;;8.26;100.00;97525.29;109333;1253;59776;-76
2024/02/07 06:41:54;;;;;;;4.10;2.10;;;;;;;8.28;100.00;97524.08;109364;1252;65062;-76
2024/02/07 06:44:21;;;;;;;4.50;1.40;;;;;;;8.29;100.00;97519.73;109351;1252;58983;-75
2024/02/07 06:46:48;;;;;;;4.00;1.50;;;;;;;8.32;100.00;97516.15;109348;1252;59087;-76
2024/02/07 06:49:14;;;;;;;3.50;2.00;;;;;;;8.34;100.00;97524.77;109370;1252;67141;-77
2024/02/07 06:51:41;;;;;;;5.00;2.70;;;;;;;8.36;100.00;97515.96;109102;1254;61542;-75
2024/02/07 06:54:07;;;;;;;2.00;1.80;;;;;;;8.36;100.00;97507.10;109233;1252;64149;-75
2024/02/07 06:56:34;;;;;;;3.40;1.70;;;;;;;8.37;100.00;97506.34;109341;1253;59101;-75
2024/02/07 06:59:01;;;;;;;3.90;1.70;;;;;;;8.37;100.00;97504.72;109359;1252;59237;-76
2024/02/07 07:01:27;;;;;;;5.10;2.00;;;;;;;8.39;100.00;97500.52;109380;1252;65918;-76
2024/02/07 07:03:56;;;;;;;4.40;1.90;;;;;;;8.40;100.00;97500.48;109371;1252;59988;-75
2024/02/07 07:06:23;;;;;;;4.10;1.90;;;;;;;8.40;100.00;97500.50;109482;1252;63781;-76
2024/02/07 07:08:51;;;;;;;2.80;1.60;;;;;;;8.41;100.00;97486.78;109329;1252;58995;-75
2024/02/07 07:11:17;;;;;;;4.00;2.20;;;;;;;8.43;100.00;97486.20;109363;1252;58975;-76
2024/02/07 07:13:44;;;;;;;6.30;2.70;;;;;;;8.45;100.00;97492.44;109380;1252;66881;-76
2024/02/07 07:16:11;;;;;;;4.00;1.80;;;;;;;8.48;100.00;97490.29;109050;1252;59274;-75
2024/02/07 07:18:38;;;;;;;3.00;1.40;;;;;;;8.51;100.00;97489.64;109305;1252;65127;-76
2024/02/07 07:21:07;;;;;;;2.70;1.60;;;;;;;8.55;100.00;97489.11;109347;1252;59297;-91
2024/02/07 07:23:34;;;;;;;2.30;1.60;;;;;;;8.61;100.00;97478.39;109359;1252;59151;-79
2024/02/07 07:26:01;;;;;;;4.00;1.60;;;;;;;8.65;100.00;97486.68;109373;1253;67020;-88
2024/02/07 07:28:28;;;;;;;3.60;1.90;;;;;;;8.68;100.00;97485.55;109348;1252;60251;-83
2024/02/07 07:30:57;;;;;;;4.70;1.80;;;;;;;8.72;100.00;97484.33;109340;1252;65316;-86
2024/02/07 07:33:24;;;;;;;4.70;1.80;;;;;;;8.75;100.00;97482.54;109308;1254;59093;-80
2024/02/07 07:35:51;;;;;;;6.50;2.20;;;;;;;8.76;100.00;97485.05;109140;1252;59323;-81
2024/02/07 07:38:17;;;;;;;6.20;1.70;;;;;;;8.76;100.00;97493.17;109297;1252;73829;-81
2024/02/07 07:40:44;;;;;;;3.50;1.80;;;;;;;8.77;100.00;97496.20;109375;1256;60194;-79
2024/02/07 07:43:10;;;;;;;3.20;1.80;;;;;;;8.77;100.00;97503.77;109409;1252;63812;-81
2024/02/07 07:45:37;;;;;;;4.50;1.80;;;;;;;8.78;100.00;97504.59;109353;1252;59017;-81
2024/02/07 07:48:04;;;;;;;3.70;1.80;;;;;;;8.80;100.00;97506.36;109490;1252;59065;-80
2024/02/07 07:50:31;;;;;;;2.70;1.80;;;;;;;8.83;100.00;97508.62;109502;1253;64739;-83
2024/02/07 07:52:59;;;;;;;4.90;2.00;;;;;;;8.86;100.00;97508.54;109456;1252;60091;-82
2024/02/07 07:55:25;;;;;;;3.30;2.00;;;;;;;8.88;100.00;97514.73;109374;1252;64050;-85
2024/02/07 07:57:52;;;;;;;4.00;1.70;;;;;;;8.89;100.00;97516.80;109057;1255;59097;-85
2024/02/07 08:00:18;;;;;;;4.50;2.00;;;;;;;8.88;100.00;97514.92;109105;1255;59545;-84
2024/02/07 08:02:45;;;;;;;3.50;1.70;;;;;;;8.88;100.00;97511.91;109083;1255;66074;-88
2024/02/07 08:05:12;;;;;;;5.10;2.30;;;;;;;8.88;100.00;97502.70;109118;1255;59127;-84
2024/02/07 08:07:38;;;;;;;4.50;1.80;;;;;;;8.88;100.00;97498.45;109087;1255;65106;-87
2024/02/07 08:10:05;;;;;;;1.90;1.70;;;;;;;8.87;100.00;97506.13;108968;1255;59109;-74
2024/02/07 08:12:32;;;;;;;6.60;2.20;;;;;;;8.88;100.00;97504.48;109059;1255;59476;-73
2024/02/07 08:14:58;;;;;;;5.30;2.50;;;;;;;8.89;100.00;97508.05;109089;1255;67217;-72
2024/02/07 08:17:25;;;;;;;3.40;1.90;;;;;;;8.91;100.00;97505.99;109092;1255;61069;-74
2024/02/07 08:19:51;;;;;;;2.80;1.70;;;;;;;8.94;100.00;97505.20;109068;1255;65402;-74
2024/02/07 08:22:18;;;;;;;2.30;1.60;;;;;;;9.00;100.00;97509.81;109065;1255;59396;-73
2024/02/07 08:24:45;;;;;;;3.10;1.90;;;;;;;9.07;100.00;97510.30;109036;1255;59488;-73
2024/02/07 08:27:11;;;;;;;3.40;1.90;;;;;;;9.12;100.00;97503.15;109072;1255;67339;-72
2024/02/07 08:29:38;;;;;;;3.10;1.60;;;;;;;9.14;100.00;97502.77;109309;1252;60991;-73
2024/02/07 08:32:05;;;;;;;4.20;1.80;;;;;;;9.11;100.00;97502.50;109414;1252;65057;-72
2024/02/07 08:34:33;;;;;;;5.00;1.90;;;;;;;9.06;100.00;97498.38;109069;1252;59112;-73
2024/02/07 08:37:00;;;;;;;2.10;1.80;;;;;;;8.96;100.00;97483.08;109344;1252;59591;-72
2024/02/07 08:39:26;;;;;;;2.10;1.70;;;;;;;8.90;100.00;97492.21;109414;1252;67008;-72
2024/02/07 08:41:54;;;;;;;5.10;1.90;;;;;;;8.87;100.00;97491.46;109110;1254;59102;-73
2024/02/07 08:44:20;;;;;;;4.40;2.20;;;;;;;8.84;100.00;97487.61;109308;1253;64069;-72
2024/02/07 08:46:47;;;;;;;2.80;1.40;;;;;;;8.83;100.00;97484.86;109197;1254;59332;-71
2024/02/07 08:49:18;;;;;;;2.20;1.50;;;;;;;8.84;100.00;97482.70;109292;1254;59037;-72
2024/02/07 08:51:45;;;;;;;3.00;1.80;;;;;;;8.86;100.00;97487.64;109324;1253;67097;-72
2024/02/07 08:54:12;;;;;;;2.40;1.70;;;;;;;8.87;100.00;97483.48;109101;1254;61092;-72
2024/02/07 08:56:38;;;;;;;2.60;1.80;;;;;;;8.87;100.00;97483.28;109261;1253;64086;-72
2024/02/07 08:59:05;;;;;;;2.40;1.70;;;;;;;8.88;100.00;97482.31;109305;1254;59048;-72
2024/02/07 09:01:31;;;;;;;2.70;1.40;;;;;;;8.90;100.00;97480.52;109295;1253;59152;-73
2024/02/07 09:03:58;;;;;;;6.60;2.00;;;;;;;8.93;100.00;97478.86;109275;1254;66015;-73
2024/02/07 09:06:24;;;;;;;5.20;1.80;;;;;;;8.93;100.00;97470.33;109330;1254;59864;-72
2024/02/07 09:08:51;;;;;;;3.80;1.60;;;;;;;8.92;100.00;97469.01;109301;1254;65084;-73
2024/02/07 09:11:17;;;;;;;2.40;1.40;;;;;;;8.91;100.00;97468.27;109299;1254;58987;-73
2024/02/07 09:13:44;;;;;;;2.30;1.50;;;;;;;8.88;100.00;97468.12;109268;1254;59276;-73
2024/02/07 09:16:11;;;;;;;2.40;1.60;;;;;;;8.87;100.00;97473.87;109131;1254;67009;-73
2024/02/07 09:18:38;;;;;;;3.00;1.60;;;;;;;8.87;100.00;97470.73;109293;1253;61105;-73
2024/02/07 09:21:04;;;;;;;2.90;1.20;;;;;;;8.86;100.00;97475.37;109285;1253;63944;-72
2024/02/07 09:23:31;;;;;;;3.80;1.40;;;;;;;8.86;100.00;97473.48;109061;1254;59360;-72
2024/02/07 09:25:58;;;;;;;2.50;1.40;;;;;;;8.87;100.00;97476.93;109305;1253;59046;-74
2024/02/07 09:28:25;;;;;;;2.90;1.30;;;;;;;8.88;100.00;97465.45;109107;1253;67156;-71
2024/02/07 09:30:52;;;;;;;4.70;1.70;;;;;;;8.90;100.00;97469.21;109287;1254;61094;-73
2024/02/07 09:33:18;;;;;;;2.40;1.30;;;;;;;8.92;100.00;97472.05;109307;1253;65080;-74
2024/02/07 09:35:45;;;;;;;2.40;1.50;;;;;;;8.91;100.00;97471.73;109279;1254;59014;-73
2024/02/07 09:38:12;;;;;;;2.10;1.10;;;;;;;8.91;100.00;97463.10;109048;1254;59981;-72
2024/02/07 09:40:38;;;;;;;1.80;1.20;;;;;;;8.91;100.00;97458.65;109297;1253;65777;-72
2024/02/07 09:43:05;;;;;;;2.50;1.30;;;;;;;8.92;100.00;97451.92;109311;1253;61526;-72
2024/02/07 09:45:34;;;;;;;2.90;1.20;;;;;;;8.92;100.00;97452.41;109285;1254;65296;-73
2024/02/07 09:48:11;;;;;;;2.40;1.50;;;;;;;8.93;100.00;97445.91;109273;1254;59190;-73
2024/02/07 09:50:39;;;;;;;2.10;1.60;;;;;;;8.97;100.00;97452.70;109307;1253;59049;-73
2024/02/07 09:53:10;;;;;;;4.50;2.20;;;;;;;8.99;100.00;97445.61;109299;1254;65746;-72
2024/02/07 09:55:37;;;;;;;3.10;1.90;;;;;;;9.01;100.00;97442.58;109383;1252;61111;-73
2024/02/07 09:58:05;;;;;;;3.10;1.60;;;;;;;9.05;100.00;97445.27;109421;1252;64225;-73
2024/02/07 10:00:32;;;;;;;6.00;1.70;;;;;;;9.09;100.00;97439.80;109379;1252;59085;-83
2024/02/07 10:03:01;;;;;;;1.90;1.30;;;;;;;9.11;100.00;97436.59;109260;1252;59666;-82
2024/02/07 10:05:30;;;;;;;3.10;1.70;;;;;;;9.14;100.00;97436.52;109181;1252;65180;-80
2024/02/07 10:07:57;;;;;;;3.30;1.70;;;;;;;9.18;100.00;97434.42;109293;1252;60022;-81
2024/02/07 10:10:23;;;;;;;3.90;1.90;;;;;;;9.21;100.00;97434.45;109388;1252;65116;-81
2024/02/07 10:12:54;;;;;;;3.70;1.40;;;;;;;9.23;100.00;97431.83;109359;1252;58947;-80
2024/02/07 10:15:23;;;;;;;2.20;1.60;;;;;;;9.24;100.00;97422.55;109344;1252;59639;-78
2024/02/07 10:17:50;;;;;;;2.70;1.80;;;;;;;9.27;100.00;97423.55;109361;1252;66142;-79
2024/02/07 10:20:17;;;;;;;2.10;1.10;;;;;;;9.29;100.00;97425.17;109370;1252;61072;-76
2024/02/07 10:22:43;;;;;;;3.10;1.70;;;;;;;9.30;100.00;97427.50;109361;1252;65273;-79
2024/02/07 10:25:16;;;;;;;2.40;1.70;;;;;;;9.31;100.00;97419.81;109376;1252;59022;-80
2024/02/07 10:27:43;;;;;;;3.50;1.90;;;;;;;9.31;100.00;97420.54;109394;1252;58839;-79
2024/02/07 10:30:12;;;;;;;3.70;1.70;;;;;;;9.30;100.00;97419.73;109402;1252;66039;-80
2024/02/07 10:32:40;;;;;;;2.40;1.60;;;;;;;9.29;100.00;97407.94;109386;1252;59792;-79
2024/02/07 10:35:10;;;;;;;4.90;1.80;;;;;;;9.28;100.00;97402.40;109281;1252;63992;-79
2024/02/07 10:37:41;;;;;;;;;;;;;;;9.27;100.00;97405.15;109346;1252;59165;-82
2024/02/07 10:40:08;;;;;;;;;;;;;;;9.24;100.00;97399.66;109446;1253;58969;-82
2024/02/07 10:42:35;;;;;;;2.90;1.30;;;;;;;9.23;100.00;97400.30;109570;1252;67033;-81
2024/02/07 10:45:03;;;;;;;3.80;1.60;;;;;;;9.23;100.00;97402.23;109552;1252;60311;-84
2024/02/07 10:47:34;;;;;;;3.70;1.70;;;;;;;9.26;100.00;97398.98;109573;1252;63983;-82
2024/02/07 10:50:02;;;;;;;2.90;1.90;;;;;;;9.30;100.00;97407.48;109721;1251;58948;-82
2024/02/07 10:52:29;;;;;;;6.20;2.20;;;;;;;9.36;100.00;97409.51;109690;1252;59044;-82
2024/02/07 10:54:56;;;;;;;2.10;1.70;;;;;;;9.38;100.00;97415.84;109251;1252;66995;-81
2024/02/07 10:57:30;;;;;;;2.00;1.70;;;;;;;9.41;100.00;97401.89;109341;1252;60047;-82
2024/02/07 10:59:59;;;;;;;5.90;2.00;;;;;;;9.47;100.00;97409.07;109085;1254;65060;-82
2024/02/07 11:02:26;;;;;;;4.40;1.80;;;;;;;9.51;100.00;97407.63;109093;1252;60135;-80
2024/02/07 11:04:53;;;;;;;4.30;1.90;;;;;;;9.55;100.00;97408.65;109493;1252;59141;-82
2024/02/07 11:07:20;;;;;;;2.30;1.90;;;;;;;9.61;100.00;97400.46;109506;1252;66134;-81
2024/02/07 11:09:47;;;;;;;3.40;2.00;;;;;;;9.69;100.00;97390.27;109190;1252;60055;-81
2024/02/07 11:12:14;;;;;;;5.10;1.60;;;;;;;9.76;100.00;97389.46;109147;1252;63879;-81
2024/02/07 11:14:46;;;;;;;3.00;1.70;;;;;;;9.83;100.00;97393.02;109450;1252;59057;-80
2024/02/07 11:17:14;;;;;;;3.10;1.80;;;;;;;9.90;100.00;97386.44;109508;1252;58958;-81
2024/02/07 11:19:42;;;;;;;5.50;1.90;;;;;;;9.94;100.00;97389.91;109594;1252;66166;-82
2024/02/07 11:22:37;;;;;;;4.70;2.20;;;;;;;9.97;100.00;97385.08;109504;1253;60316;-82
2024/02/07 11:25:06;;;;;;;6.90;1.80;;;;;;;10.02;100.00;97385.85;109513;1253;64284;-84
2024/02/07 11:27:39;;;;;;;4.10;1.90;;;;;;;10.04;100.00;97377.48;109354;1253;59294;-82
2024/02/07 11:30:10;;;;;;;3.00;1.80;;;;;;;10.03;100.00;97369.79;109609;1253;58901;-81
2024/02/07 11:32:41;;;;;;;2.80;2.10;;;;;;;10.03;100.00;97370.34;109613;1253;66970;-81
2024/02/07 11:35:08;;;;;;;5.30;2.30;;;;;;;10.04;100.00;97370.21;109465;1255;60238;-81
2024/02/07 11:37:36;;;;;;;3.20;1.70;;;;;;;10.05;100.00;97367.83;109049;1253;270404;-81
2024/02/07 11:40:05;;;;;;;4.10;2.10;;;;;;;10.07;100.00;97371.33;109500;1253;58973;-81
2024/02/07 11:42:37;;;;;;;3.30;1.70;;;;;;;10.14;100.00;97370.55;109439;1253;58313;-77
2024/02/07 11:45:05;;;;;;;4.30;1.80;;;;;;;10.21;100.00;97368.90;109333;1253;67446;-77
2024/02/07 11:47:40;;;;;;;4.30;1.90;;;;;;;10.23;100.00;97370.10;108977;1255;61190;-77
2024/02/07 11:50:07;;;;;;;5.00;2.20;;;;;;;10.19;100.00;97369.36;109089;1255;65117;-77
2024/02/07 11:52:35;;;;;;;3.60;2.30;;;;;;;10.14;100.00;97368.41;109074;1255;61180;-79
2024/02/07 11:55:08;;;;;;;3.20;2.00;;;;;;;10.08;100.00;97374.52;109009;1255;58933;-78
2024/02/07 11:57:38;;;;;;;4.10;2.20;;;;;;;10.04;100.00;97371.27;109097;1255;66004;-77
2024/02/07 12:00:06;;;;;;;6.10;2.50;;;;;;;10.04;100.00;97364.92;109115;1255;61203;-77
2024/02/07 12:02:34;;;;;;;4.50;2.40;;;;;;;10.04;100.00;97366.48;108860;1255;65118;-76
2024/02/07 12:05:03;;;;;;;4.50;1.90;;;;;;;10.04;100.00;97362.27;108908;1255;59380;-76
2024/02/07 12:07:31;;;;;;;4.60;2.20;;;;;;;10.00;100.00;97362.98;109068;1255;59316;-79
2024/02/07 12:09:58;;;;;;;5.20;2.20;;;;;;;10.00;100.00;97359.23;109102;1255;64468;-77
2024/02/07 12:12:25;;;;;;;4.40;1.80;;;;;;;10.01;100.00;97352.05;109113;1255;61055;-77
2024/02/07 12:14:51;;;;;;;3.80;2.00;;;;;;;10.02;100.00;97348.02;108988;1255;65742;-77
2024/02/07 12:17:18;;;;;;;3.60;1.70;;;;;;;10.05;100.00;97351.48;108953;1255;59114;-77
2024/02/07 12:19:45;;;;;;;4.20;2.20;;;;;;;10.09;100.00;97345.80;109396;1252;59038;-77
2024/02/07 12:22:18;;;;;;;3.40;2.10;;;;;;;10.10;100.00;97342.16;109278;1252;67028;-77
2024/02/07 12:24:45;;;;;;;3.80;2.70;;;;;;;10.11;100.00;97334.96;109435;1252;60777;-77
2024/02/07 12:27:13;;;;;;;4.80;2.70;;;;;;;10.12;100.00;97333.87;109431;1252;65304;-77
2024/02/07 12:29:49;;;;;;;3.70;2.00;;;;;;;10.10;100.00;97334.13;109426;1252;59044;-76